createdAt,value
2022-11-05T00:01:36.836Z,9.10
2022-11-05T00:04:24.461Z,10.05
2022-11-05T00:07:12.029Z,12.68
2022-11-05T00:09:38.284Z,11.38
2022-11-05T00:12:24.828Z,10.07
2022-11-05T00:15:09.602Z,11.18
2022-11-05T00:17:35.920Z,10.13
2022-11-05T00:20:02.149Z,11.40
2022-11-05T00:22:46.998Z,9.52
2022-11-05T00:25:19.139Z,12.80
2022-11-05T00:27:46.107Z,10.25
2022-11-05T00:30:13.119Z,10.35
2022-11-05T00:32:39.370Z,12.07
2022-11-05T00:35:06.835Z,9.68
2022-11-05T00:37:33.170Z,9.82
2022-11-05T00:39:59.402Z,10.45
2022-11-05T00:42:44.349Z,9.77
2022-11-05T00:45:10.633Z,7.07
2022-11-05T00:47:57.005Z,10.70
2022-11-05T00:50:23.328Z,12.00
2022-11-05T00:52:56.003Z,10.93
2022-11-05T00:55:28.246Z,8.57
2022-11-05T00:57:55.158Z,7.90
2022-11-05T01:00:21.964Z,9.00
2022-11-05T01:02:48.349Z,13.00
2022-11-05T01:05:14.665Z,8.30
2022-11-05T01:07:40.981Z,7.72
2022-11-05T01:10:07.411Z,6.78
2022-11-05T01:12:33.806Z,10.70
2022-11-05T01:15:00.385Z,6.72
2022-11-05T01:17:26.625Z,10.73
2022-11-05T01:19:52.858Z,7.72
2022-11-05T01:22:19.109Z,5.63
2022-11-05T01:24:45.364Z,5.65
2022-11-05T01:27:11.595Z,4.60
2022-11-05T01:29:37.816Z,6.90
2022-11-05T01:32:04.218Z,4.93
2022-11-05T01:34:30.497Z,5.03
2022-11-05T01:36:56.710Z,7.63
2022-11-05T01:39:22.922Z,6.55
2022-11-05T01:41:49.153Z,5.85
2022-11-05T01:44:33.942Z,7.68
2022-11-05T01:47:00.375Z,5.88
2022-11-05T01:49:28.474Z,5.30
2022-11-05T01:51:55.977Z,5.55
2022-11-05T01:54:24.819Z,6.65
2022-11-05T01:56:54.259Z,5.82
2022-11-05T01:59:23.206Z,5.30
2022-11-05T02:01:50.281Z,7.00
2022-11-05T02:04:21.902Z,6.78
2022-11-05T02:06:48.227Z,4.82
2022-11-05T02:09:30.087Z,4.95
2022-11-05T02:11:57.027Z,6.97
2022-11-05T02:14:23.290Z,6.60
2022-11-05T02:16:56.265Z,7.00
2022-11-05T02:19:22.441Z,8.25
2022-11-05T02:21:57.835Z,7.45
2022-11-05T02:24:27.046Z,4.55
2022-11-05T02:27:05.565Z,6.70
2022-11-05T02:29:42.820Z,5.05
2022-11-05T02:32:09.040Z,5.45
2022-11-05T02:34:50.628Z,8.52
2022-11-05T02:37:32.158Z,7.55
2022-11-05T02:39:58.384Z,7.28
2022-11-05T02:42:51.033Z,7.90
2022-11-05T02:45:25.384Z,5.97
2022-11-05T02:48:11.908Z,6.80
2022-11-05T02:50:48.953Z,5.75
2022-11-05T02:53:35.441Z,7.28
2022-11-05T02:56:05.473Z,6.07
2022-11-05T02:58:33.339Z,9.57
2022-11-05T03:01:00.333Z,5.32
2022-11-05T03:03:31.936Z,6.20
2022-11-05T03:05:58.191Z,7.28
2022-11-05T03:08:33.386Z,7.53
2022-11-05T03:11:02.401Z,6.53
2022-11-05T03:13:37.080Z,8.30
2022-11-05T03:16:10.310Z,8.40
2022-11-05T03:18:42.395Z,6.60
2022-11-05T03:21:14.668Z,6.57
2022-11-05T03:23:51.839Z,5.95
2022-11-05T03:26:20.932Z,7.13
2022-11-05T03:28:49.875Z,6.55
2022-11-05T03:31:16.906Z,7.43
2022-11-05T03:33:44.326Z,7.28
2022-11-05T03:36:16.309Z,8.13
2022-11-05T03:38:44.147Z,6.78
2022-11-05T03:41:11.960Z,6.88
2022-11-05T03:43:40.441Z,8.60
2022-11-05T03:46:09.267Z,5.60
2022-11-05T03:48:38.201Z,5.35
2022-11-05T03:51:08.600Z,5.55
2022-11-05T03:53:43.387Z,7.90
2022-11-05T03:56:30.774Z,8.70
2022-11-05T03:58:59.067Z,6.68
2022-11-05T04:01:26.378Z,6.25
2022-11-05T04:03:52.839Z,5.20
2022-11-05T04:06:37.615Z,8.35
2022-11-05T04:09:29.826Z,6.82
2022-11-05T04:12:14.508Z,6.13
2022-11-05T04:14:40.741Z,7.90
2022-11-05T04:17:07.044Z,6.28
2022-11-05T04:19:52.340Z,7.68
2022-11-05T04:22:37.256Z,7.88
2022-11-05T04:25:03.626Z,7.90
2022-11-05T04:27:29.873Z,6.47
2022-11-05T04:30:14.561Z,5.50
2022-11-05T04:32:40.794Z,5.50
2022-11-05T04:35:07.119Z,8.02
2022-11-05T04:37:33.412Z,7.13
2022-11-05T04:39:59.741Z,7.40
2022-11-05T04:42:26.036Z,7.00
2022-11-05T04:44:52.260Z,5.90
2022-11-05T04:47:18.469Z,7.03
2022-11-05T04:49:44.673Z,5.57
2022-11-05T04:52:10.936Z,9.75
2022-11-05T04:54:37.192Z,5.03
2022-11-05T04:57:03.472Z,4.13
2022-11-05T04:59:29.674Z,5.30
2022-11-05T05:01:55.980Z,7.60
2022-11-05T05:04:22.284Z,6.97
2022-11-05T05:06:48.542Z,5.80
2022-11-05T05:09:14.763Z,5.25
2022-11-05T05:11:41.063Z,7.93
2022-11-05T05:14:07.315Z,5.00
2022-11-05T05:16:33.549Z,6.35
2022-11-05T05:18:59.765Z,7.28
2022-11-05T05:21:42.158Z,6.70
2022-11-05T05:24:10.051Z,4.40
2022-11-05T05:26:40.760Z,6.82
2022-11-05T05:29:07.211Z,4.47
2022-11-05T05:31:33.674Z,6.15
2022-11-05T05:34:00.082Z,4.80
2022-11-05T05:36:26.615Z,5.20
2022-11-05T05:38:52.915Z,4.82
2022-11-05T05:41:19.308Z,5.00
2022-11-05T05:43:45.672Z,5.80
2022-11-05T05:46:13.118Z,4.70
2022-11-05T05:48:39.547Z,5.43
2022-11-05T05:51:06.995Z,4.97
2022-11-05T05:53:33.801Z,5.13
2022-11-05T05:56:00.386Z,4.60
2022-11-05T05:58:27.470Z,5.38
2022-11-05T06:00:53.992Z,6.32
2022-11-05T06:03:20.455Z,5.80
2022-11-05T06:05:47.747Z,4.30
2022-11-05T06:08:13.985Z,5.15
2022-11-05T06:10:40.324Z,4.40
2022-11-05T06:13:06.643Z,7.13
2022-11-05T06:15:35.828Z,6.25
2022-11-05T06:18:03.099Z,5.20
2022-11-05T06:20:29.721Z,9.40
2022-11-05T06:22:56.568Z,5.93
2022-11-05T06:25:22.937Z,5.82
2022-11-05T06:27:49.174Z,6.65
2022-11-05T06:30:15.488Z,6.82
2022-11-05T06:32:41.724Z,6.28
2022-11-05T06:35:08.377Z,5.28
2022-11-05T06:37:34.695Z,6.35
2022-11-05T06:40:01.334Z,5.80
2022-11-05T06:42:27.823Z,8.25
2022-11-05T06:44:54.067Z,5.25
2022-11-05T06:47:20.419Z,6.20
2022-11-05T06:49:46.877Z,6.07
2022-11-05T06:52:13.779Z,6.45
2022-11-05T06:54:40.730Z,6.05
2022-11-05T06:57:09.518Z,5.20
2022-11-05T06:59:36.215Z,5.45
2022-11-05T07:02:02.481Z,4.15
2022-11-05T07:04:28.781Z,6.10
2022-11-05T07:06:55.161Z,4.63
2022-11-05T07:09:21.405Z,6.13
2022-11-05T07:11:47.658Z,5.00
2022-11-05T07:14:13.875Z,5.70
2022-11-05T07:16:40.462Z,4.22
2022-11-05T07:19:06.696Z,5.55
2022-11-05T07:21:32.975Z,7.28
2022-11-05T07:23:59.335Z,4.18
2022-11-05T07:26:31.848Z,6.15
2022-11-05T07:29:00.551Z,5.55
2022-11-05T07:31:26.794Z,4.25
2022-11-05T07:33:53.068Z,7.05
2022-11-05T07:36:19.289Z,4.97
2022-11-05T07:38:45.548Z,6.43
2022-11-05T07:41:11.769Z,6.18
2022-11-05T07:43:38.007Z,4.05
2022-11-05T07:46:04.295Z,5.57
2022-11-05T07:48:30.551Z,5.28
2022-11-05T07:50:56.760Z,3.60
2022-11-05T07:53:22.995Z,5.13
2022-11-05T07:55:49.221Z,4.53
2022-11-05T07:58:15.474Z,5.38
2022-11-05T08:00:41.771Z,6.15
2022-11-05T08:03:10.404Z,5.03
2022-11-05T08:05:37.935Z,4.63
2022-11-05T08:08:04.861Z,5.00
2022-11-05T08:10:31.274Z,6.03
2022-11-05T08:12:57.591Z,6.82
2022-11-05T08:15:23.843Z,6.85
2022-11-05T08:17:50.538Z,6.50
2022-11-05T08:20:16.873Z,4.80
2022-11-05T08:22:46.480Z,5.97
2022-11-05T08:25:12.982Z,6.63
2022-11-05T08:27:39.705Z,5.93
2022-11-05T08:30:06.772Z,7.57
2022-11-05T08:32:32.998Z,7.35
2022-11-05T08:34:59.296Z,6.07
2022-11-05T08:37:25.557Z,8.20
2022-11-05T08:39:51.786Z,8.30
2022-11-05T08:42:18.047Z,5.72
2022-11-05T08:44:44.284Z,8.35
2022-11-05T08:47:10.933Z,9.35
2022-11-05T08:49:37.154Z,4.90
2022-11-05T08:52:03.956Z,6.13
2022-11-05T08:54:30.222Z,8.55
2022-11-05T08:56:56.480Z,9.00
2022-11-05T08:59:22.781Z,7.00
2022-11-05T09:01:50.557Z,8.55
2022-11-05T09:04:16.953Z,7.97
2022-11-05T09:06:43.246Z,5.68
2022-11-05T09:09:09.474Z,6.85
2022-11-05T09:11:57.414Z,9.88
2022-11-05T09:14:22.215Z,7.00
2022-11-05T09:16:48.484Z,8.73
2022-11-05T09:19:14.760Z,8.98
2022-11-05T09:21:40.988Z,6.82
2022-11-05T09:24:08.257Z,8.88
2022-11-05T09:26:34.523Z,8.70
2022-11-05T09:29:00.819Z,7.82
2022-11-05T09:31:27.227Z,8.55
2022-11-05T09:33:53.522Z,7.68
2022-11-05T09:36:19.782Z,6.50
2022-11-05T09:38:46.048Z,8.55
2022-11-05T09:41:43.407Z,8.93
2022-11-05T09:46:45.137Z,8.03
2022-11-05T09:49:24.698Z,7.75
2022-11-05T09:51:52.561Z,6.72
2022-11-05T09:54:20.804Z,8.95
2022-11-05T09:56:47.383Z,8.30
2022-11-05T09:59:18.886Z,7.28
2022-11-05T10:01:45.714Z,8.00
2022-11-05T10:04:17.515Z,8.05
2022-11-05T10:06:49.522Z,6.60
2022-11-05T10:09:22.795Z,8.80
2022-11-05T10:11:54.914Z,12.15
2022-11-05T10:14:28.955Z,9.43
2022-11-05T10:17:00.657Z,7.25
2022-11-05T10:19:32.097Z,7.38
2022-11-05T10:22:08.909Z,8.63
2022-11-05T10:24:35.213Z,8.75
2022-11-05T10:27:01.495Z,7.82
2022-11-05T10:29:29.946Z,9.85
2022-11-05T10:31:57.147Z,10.52
2022-11-05T10:34:26.319Z,10.70
2022-11-05T10:36:54.303Z,8.50
2022-11-05T10:39:21.262Z,9.18
2022-11-05T10:41:50.304Z,6.15
2022-11-05T10:44:18.960Z,8.57
2022-11-05T10:46:54.611Z,8.10
2022-11-05T10:49:20.929Z,6.83
2022-11-05T10:51:52.200Z,8.15
2022-11-05T10:54:20.638Z,7.15
2022-11-05T10:56:47.326Z,8.05
2022-11-05T10:59:24.282Z,6.78
2022-11-05T11:02:01.009Z,6.47
2022-11-05T11:04:32.289Z,7.72
2022-11-05T11:07:02.137Z,7.90
2022-11-05T11:09:33.013Z,5.80
2022-11-05T11:12:07.191Z,5.22
2022-11-05T11:14:35.056Z,5.85
2022-11-05T11:17:18.129Z,5.53
2022-11-05T11:19:45.338Z,7.55
2022-11-05T11:22:13.626Z,7.68
2022-11-05T11:24:44.434Z,4.95
2022-11-05T11:27:16.278Z,7.28
2022-11-05T11:29:49.156Z,6.38
2022-11-05T11:32:17.653Z,8.00
2022-11-05T11:34:45.347Z,6.90
2022-11-05T11:37:16.739Z,7.53
2022-11-05T11:39:48.002Z,5.78
2022-11-05T11:42:19.058Z,5.95
2022-11-05T11:44:47.085Z,6.10
2022-11-05T11:47:15.005Z,5.13
2022-11-05T11:49:47.311Z,5.60
2022-11-05T11:52:14.885Z,6.55
2022-11-05T11:54:41.203Z,6.38
2022-11-05T11:57:26.655Z,5.80
2022-11-05T12:00:08.465Z,5.22
2022-11-05T12:03:00.361Z,5.13
2022-11-05T12:05:47.010Z,5.70
2022-11-05T12:08:13.246Z,5.60
2022-11-05T12:11:15.237Z,6.18
2022-11-05T12:13:49.073Z,5.93
2022-11-05T12:16:25.078Z,4.10
2022-11-05T12:19:10.020Z,7.15
2022-11-05T12:21:52.725Z,6.43
2022-11-05T12:24:25.203Z,5.07
2022-11-05T12:27:18.921Z,6.78
2022-11-05T12:30:05.407Z,5.00
2022-11-05T12:32:34.866Z,5.38
2022-11-05T12:35:07.091Z,4.38
2022-11-05T12:37:52.147Z,5.32
2022-11-05T12:40:30.743Z,6.63
2022-11-05T12:43:01.114Z,8.63
2022-11-05T12:45:36.721Z,7.00
2022-11-05T12:48:27.553Z,5.80
2022-11-05T12:51:02.245Z,4.80
2022-11-05T12:53:35.737Z,5.47
2022-11-05T12:56:04.608Z,5.07
2022-11-05T12:58:33.849Z,3.97
2022-11-05T13:01:13.213Z,4.75
2022-11-05T13:03:45.906Z,9.32
2022-11-05T13:06:13.958Z,4.22
2022-11-05T13:08:52.787Z,5.45
2022-11-05T13:11:21.519Z,4.70
2022-11-05T13:13:47.751Z,3.58
2022-11-05T13:16:19.515Z,5.13
2022-11-05T13:18:48.499Z,4.20
2022-11-05T13:21:15.786Z,5.75
2022-11-05T13:23:51.758Z,7.80
2022-11-05T13:26:20.521Z,5.05
2022-11-05T13:29:07.780Z,6.10
2022-11-05T13:31:46.853Z,4.82
2022-11-05T13:34:13.267Z,4.25
2022-11-05T13:37:05.415Z,3.20
2022-11-05T13:39:46.729Z,4.35
2022-11-05T13:42:18.922Z,4.40
2022-11-05T13:45:00.918Z,3.85
2022-11-05T13:47:33.483Z,3.85
2022-11-05T13:50:15.008Z,6.18
2022-11-05T13:52:53.274Z,3.70
2022-11-05T13:55:22.573Z,4.53
2022-11-05T13:58:01.274Z,3.25
2022-11-05T14:00:28.451Z,4.13
2022-11-05T14:02:56.786Z,5.10
2022-11-05T14:05:33.973Z,5.55
2022-11-05T14:08:02.155Z,3.88
2022-11-05T14:10:31.361Z,2.92
2022-11-05T14:12:59.207Z,4.40
2022-11-05T14:15:26.845Z,3.75
2022-11-05T14:17:54.610Z,3.83
2022-11-05T14:20:38.415Z,4.22
2022-11-05T14:23:25.877Z,3.40
2022-11-05T14:25:56.760Z,4.22
2022-11-05T14:28:38.081Z,5.55
2022-11-05T14:31:20.100Z,4.53
2022-11-05T14:34:12.653Z,4.00
2022-11-05T14:36:45.930Z,4.53
2022-11-05T14:39:18.199Z,3.58
2022-11-05T14:42:00.042Z,6.25
2022-11-05T14:44:27.251Z,3.03
2022-11-05T14:46:55.698Z,4.43
2022-11-05T14:49:23.905Z,4.00
2022-11-05T14:51:51.447Z,3.78
2022-11-05T14:54:20.487Z,7.80
2022-11-05T14:56:56.274Z,5.40
2022-11-05T14:59:33.002Z,4.38
2022-11-05T15:02:13.291Z,3.50
2022-11-05T15:04:45.449Z,3.78
2022-11-05T15:07:35.271Z,4.10
2022-11-05T15:10:13.498Z,4.03
2022-11-05T15:12:52.023Z,5.60
2022-11-05T15:15:22.239Z,3.05
2022-11-05T15:17:54.755Z,3.50
2022-11-05T15:20:23.529Z,3.60
2022-11-05T15:22:51.698Z,3.92
2022-11-05T15:25:30.649Z,4.65
2022-11-05T15:31:03.970Z,2.70
2022-11-05T15:33:31.150Z,4.68
2022-11-05T15:36:09.995Z,3.25
2022-11-05T15:38:36.315Z,4.10
2022-11-05T15:41:05.135Z,4.45
2022-11-05T15:43:31.848Z,5.03
2022-11-05T15:46:03.073Z,3.38
2022-11-05T15:48:29.843Z,3.33
2022-11-05T15:50:56.269Z,4.22
2022-11-05T15:54:16.193Z,3.35
2022-11-05T15:56:50.579Z,4.55
2022-11-05T15:59:18.239Z,3.92
2022-11-05T16:02:03.140Z,3.88
2022-11-05T16:04:31.867Z,3.40
2022-11-05T16:06:59.570Z,5.90
2022-11-05T16:09:30.112Z,4.20
2022-11-05T16:12:14.881Z,4.00
2022-11-05T16:14:41.668Z,3.63
2022-11-05T16:17:18.848Z,5.90
2022-11-05T16:19:45.466Z,2.58
2022-11-05T16:22:12.907Z,4.18
2022-11-05T16:24:39.413Z,3.78
2022-11-05T16:27:05.965Z,3.65
2022-11-05T16:29:36.597Z,4.13
2022-11-05T16:32:05.294Z,5.32
2022-11-05T16:34:41.976Z,5.53
2022-11-05T16:37:12.937Z,4.32
2022-11-05T16:39:39.247Z,3.10
2022-11-05T16:42:28.408Z,4.78
2022-11-05T16:44:55.204Z,3.38
2022-11-05T16:47:21.863Z,2.88
2022-11-05T16:49:48.515Z,4.13
2022-11-05T16:52:19.560Z,5.00
2022-11-05T16:54:45.985Z,4.18
2022-11-05T16:57:19.503Z,4.63
2022-11-05T16:59:45.789Z,4.18
2022-11-05T17:02:13.208Z,4.88
2022-11-05T17:04:39.641Z,4.68
2022-11-05T17:07:05.870Z,3.63
2022-11-05T17:09:32.179Z,3.78
2022-11-05T17:12:00.635Z,5.38
2022-11-05T17:14:26.885Z,5.55
2022-11-05T17:16:53.138Z,4.63
2022-11-05T17:19:19.397Z,3.25
2022-11-05T17:21:45.653Z,4.88
2022-11-05T17:24:12.004Z,5.55
2022-11-05T17:26:38.707Z,5.80
2022-11-05T17:29:05.467Z,4.30
2022-11-05T17:31:31.844Z,3.63
2022-11-05T17:33:58.460Z,4.10
2022-11-05T17:36:24.772Z,4.72
2022-11-05T17:38:51.483Z,5.10
2022-11-05T17:41:18.928Z,6.40
2022-11-05T17:43:45.602Z,6.05
2022-11-05T17:46:16.672Z,5.07
2022-11-05T17:48:48.973Z,7.18
2022-11-05T17:51:17.026Z,5.47
2022-11-05T17:53:44.427Z,5.30
2022-11-05T17:56:18.375Z,3.83
2022-11-05T17:58:50.012Z,5.47
2022-11-05T18:01:29.335Z,5.50
2022-11-05T18:03:55.820Z,5.53
2022-11-05T18:06:24.909Z,5.15
2022-11-05T18:08:51.202Z,5.57
2022-11-05T18:11:17.475Z,5.95
2022-11-05T18:13:43.792Z,5.53
2022-11-05T18:16:10.575Z,4.82
2022-11-05T18:18:36.975Z,3.47
2022-11-05T18:21:03.348Z,5.10
2022-11-05T18:23:30.124Z,6.10
2022-11-05T18:25:56.626Z,4.18
2022-11-05T18:28:23.807Z,4.65
2022-11-05T18:30:51.380Z,4.80
2022-11-05T18:33:17.674Z,4.80
2022-11-05T18:35:44.915Z,6.07
2022-11-05T18:38:11.605Z,4.78
2022-11-05T18:40:38.604Z,4.82
2022-11-05T18:43:04.881Z,4.68
2022-11-05T18:45:33.232Z,5.03
2022-11-05T18:48:02.952Z,5.50
2022-11-05T18:50:29.628Z,5.85
2022-11-05T18:52:56.038Z,6.80
2022-11-05T18:55:22.407Z,6.05
2022-11-05T18:57:48.916Z,5.72
2022-11-05T19:00:15.616Z,4.72
2022-11-05T19:02:42.138Z,5.95
2022-11-05T19:07:55.162Z,5.13
2022-11-05T19:10:21.396Z,7.95
2022-11-05T19:12:47.772Z,6.85
2022-11-05T19:15:14.124Z,5.82
2022-11-05T19:17:40.426Z,6.60
2022-11-05T19:20:07.403Z,5.05
2022-11-05T19:22:33.717Z,5.88
2022-11-05T19:24:59.934Z,7.50
2022-11-05T19:27:26.200Z,7.15
2022-11-05T19:29:52.442Z,6.00
2022-11-05T19:32:18.715Z,5.20
2022-11-05T19:34:44.951Z,5.55
2022-11-05T19:37:12.277Z,6.95
2022-11-05T19:39:39.939Z,7.53
2022-11-05T19:42:06.654Z,6.47
2022-11-05T19:44:32.991Z,6.10
2022-11-05T19:47:02.522Z,6.28
2022-11-05T19:49:28.805Z,5.88
2022-11-05T19:51:55.126Z,8.48
2022-11-05T19:54:21.672Z,6.10
2022-11-05T19:56:49.394Z,6.35
2022-11-05T19:59:15.761Z,5.80
2022-11-05T20:01:42.078Z,5.50
2022-11-05T20:04:09.525Z,6.70
2022-11-05T20:06:37.972Z,6.03
2022-11-05T20:09:21.180Z,6.25
2022-11-05T20:11:49.719Z,7.72
2022-11-05T20:14:16.082Z,6.05
2022-11-05T20:16:42.730Z,5.45
2022-11-05T20:19:10.635Z,7.28
2022-11-05T20:21:37.371Z,5.85
2022-11-05T20:24:03.782Z,4.97
2022-11-05T20:26:30.077Z,5.07
2022-11-05T20:28:56.361Z,5.05
2022-11-05T20:31:22.741Z,5.22
2022-11-05T20:33:49.013Z,5.35
2022-11-05T20:36:16.555Z,5.03
2022-11-05T20:38:42.932Z,4.72
2022-11-05T20:41:10.299Z,6.65
2022-11-05T20:43:37.295Z,5.50
2022-11-05T20:46:03.899Z,4.93
2022-11-05T20:48:31.266Z,7.53
2022-11-05T20:50:57.576Z,6.85
2022-11-05T20:53:23.837Z,7.50
2022-11-05T20:55:50.280Z,6.88
2022-11-05T20:58:16.893Z,6.53
2022-11-05T21:00:51.214Z,5.82
2022-11-05T21:03:18.051Z,3.67
2022-11-05T21:05:47.964Z,4.30
2022-11-05T21:08:14.891Z,6.50
2022-11-05T21:10:41.526Z,5.60
2022-11-05T21:13:08.267Z,4.28
2022-11-05T21:15:34.574Z,5.25
2022-11-05T21:18:01.179Z,4.43
2022-11-05T21:20:27.482Z,4.40
2022-11-05T21:22:54.046Z,4.53
2022-11-05T21:25:20.336Z,6.40
2022-11-05T21:27:46.623Z,5.70
2022-11-05T21:30:13.114Z,5.32
2022-11-05T21:32:39.420Z,6.80
2022-11-05T21:35:05.849Z,5.88
2022-11-05T21:37:32.366Z,7.63
2022-11-05T21:39:58.580Z,5.05
2022-11-05T21:42:24.876Z,6.43
2022-11-05T21:44:53.933Z,4.63
2022-11-05T21:47:22.627Z,5.28
2022-11-05T21:49:48.889Z,4.78
2022-11-05T21:52:33.764Z,4.80
2022-11-05T21:55:18.617Z,5.65
2022-11-05T21:58:03.368Z,4.13
2022-11-05T22:00:29.621Z,5.53
2022-11-05T22:02:56.037Z,6.45
2022-11-05T22:05:22.352Z,5.70
2022-11-05T22:07:48.642Z,5.05
2022-11-05T22:10:16.533Z,5.00
2022-11-05T22:12:43.150Z,5.88
2022-11-05T22:15:09.647Z,6.68
2022-11-05T22:17:35.898Z,7.30
2022-11-05T22:20:02.252Z,5.35
2022-11-05T22:22:28.480Z,5.57
2022-11-05T22:24:54.778Z,4.70
2022-11-05T22:27:23.875Z,3.90
2022-11-05T22:29:50.151Z,5.07
2022-11-05T22:32:16.771Z,5.43
2022-11-05T22:34:43.001Z,3.88
2022-11-05T22:37:10.398Z,3.85
2022-11-05T22:39:36.923Z,6.40
2022-11-05T22:42:08.008Z,5.32
2022-11-05T22:44:35.109Z,6.63
2022-11-05T22:47:01.412Z,3.30
2022-11-05T22:49:27.667Z,4.30
2022-11-05T22:51:53.914Z,7.50
2022-11-05T22:54:20.198Z,4.97
2022-11-05T22:56:46.481Z,3.67
2022-11-05T22:59:15.062Z,3.40
2022-11-05T23:01:42.228Z,3.90
2022-11-05T23:04:08.792Z,4.05
2022-11-05T23:06:53.518Z,4.45
2022-11-05T23:09:40.290Z,5.57
2022-11-05T23:12:11.736Z,5.45
2022-11-05T23:14:38.058Z,5.88
2022-11-05T23:17:22.863Z,4.45
2022-11-05T23:20:07.599Z,5.35
2022-11-05T23:22:52.473Z,6.88
2022-11-05T23:25:20.325Z,5.88
2022-11-05T23:27:50.045Z,5.32
2022-11-05T23:30:18.305Z,5.05
2022-11-05T23:32:44.871Z,4.80
2022-11-05T23:35:11.136Z,6.05
2022-11-05T23:37:56.304Z,4.05
2022-11-05T23:40:26.841Z,5.00
2022-11-05T23:43:11.941Z,5.60
2022-11-05T23:45:54.747Z,5.57
2022-11-05T23:48:29.845Z,5.63
2022-11-05T23:50:56.034Z,4.25
2022-11-05T23:53:22.411Z,5.30
2022-11-05T23:55:49.008Z,3.17
2022-11-05T23:58:16.141Z,6.00
